createdAt,value
2022-10-18T00:02:25.530Z,9.43
2022-10-18T00:04:55.264Z,8.93
2022-10-18T00:07:25.078Z,9.15
2022-10-18T00:09:57.249Z,10.48
2022-10-18T00:12:26.855Z,9.10
2022-10-18T00:14:56.607Z,8.50
2022-10-18T00:17:26.213Z,8.93
2022-10-18T00:19:56.093Z,7.75
2022-10-18T00:22:25.904Z,8.85
2022-10-18T00:24:58.173Z,10.68
2022-10-18T00:27:28.057Z,10.25
2022-10-18T00:29:57.856Z,9.90
2022-10-18T00:32:27.944Z,10.18
2022-10-18T00:34:57.650Z,9.18
2022-10-18T00:37:27.309Z,8.82
2022-10-18T00:39:59.544Z,9.57
2022-10-18T00:42:33.104Z,9.23
2022-10-18T00:45:25.277Z,9.77
2022-10-18T00:47:58.082Z,9.65
2022-10-18T00:50:29.816Z,9.60
2022-10-18T00:53:01.345Z,9.23
2022-10-18T00:55:35.476Z,9.35
2022-10-18T00:58:06.784Z,9.40
2022-10-18T01:00:39.256Z,10.05
2022-10-18T01:03:10.783Z,9.38
2022-10-18T01:05:45.528Z,9.55
2022-10-18T01:08:42.993Z,9.80
2022-10-18T01:11:27.553Z,8.90
2022-10-18T01:14:05.926Z,9.82
2022-10-18T01:16:40.505Z,9.20
2022-10-18T01:19:35.695Z,8.95
2022-10-18T01:22:12.084Z,8.57
2022-10-18T01:25:04.051Z,8.57
2022-10-18T01:27:46.978Z,8.40
2022-10-18T01:30:42.892Z,9.35
2022-10-18T01:33:22.777Z,8.60
2022-10-18T01:35:56.922Z,9.65
2022-10-18T01:38:28.788Z,8.75
2022-10-18T01:41:00.953Z,7.90
2022-10-18T01:43:32.884Z,8.43
2022-10-18T01:46:08.115Z,8.57
2022-10-18T01:48:39.678Z,9.93
2022-10-18T01:51:09.330Z,8.52
2022-10-18T01:53:39.174Z,8.68
2022-10-18T01:56:20.869Z,8.77
2022-10-18T01:58:58.281Z,7.90
2022-10-18T02:01:36.427Z,7.80
2022-10-18T02:04:22.106Z,8.63
2022-10-18T02:06:58.309Z,7.15
2022-10-18T02:09:38.579Z,7.22
2022-10-18T02:12:12.340Z,7.40
2022-10-18T02:17:16.201Z,6.90
2022-10-18T02:19:49.281Z,6.50
2022-10-18T02:22:20.998Z,6.47
2022-10-18T02:24:55.942Z,7.32
2022-10-18T02:27:26.071Z,6.30
2022-10-18T02:29:56.438Z,6.68
2022-10-18T02:32:36.709Z,6.90
2022-10-18T02:35:13.468Z,7.03
2022-10-18T02:37:45.843Z,6.13
2022-10-18T02:40:16.106Z,6.28
2022-10-18T02:42:49.680Z,7.00
2022-10-18T02:45:20.653Z,8.10
2022-10-18T02:47:52.886Z,7.70
2022-10-18T02:50:22.595Z,8.40
2022-10-18T02:52:52.225Z,8.07
2022-10-18T02:55:21.896Z,8.20
2022-10-18T02:57:51.720Z,7.10
2022-10-18T03:00:21.505Z,6.30
2022-10-18T03:02:54.014Z,6.18
2022-10-18T03:05:23.785Z,7.43
2022-10-18T03:07:53.440Z,7.70
2022-10-18T03:10:23.082Z,7.38
2022-10-18T03:12:52.718Z,6.63
2022-10-18T03:15:22.325Z,6.53
2022-10-18T03:17:54.697Z,7.70
2022-10-18T03:20:24.298Z,6.22
2022-10-18T03:22:53.969Z,5.93
2022-10-18T03:25:23.651Z,6.18
2022-10-18T03:27:53.368Z,7.38
2022-10-18T03:30:23.004Z,7.43
2022-10-18T03:32:55.296Z,6.38
2022-10-18T03:35:25.343Z,6.93
2022-10-18T03:37:55.047Z,6.80
2022-10-18T03:40:24.836Z,6.38
2022-10-18T03:42:54.477Z,6.47
2022-10-18T03:45:28.832Z,5.43
2022-10-18T03:48:03.559Z,6.88
2022-10-18T03:50:33.283Z,6.15
2022-10-18T03:53:02.944Z,6.00
2022-10-18T03:55:32.500Z,5.75
2022-10-18T03:58:02.322Z,5.80
2022-10-18T04:00:32.107Z,5.32
2022-10-18T04:03:04.382Z,5.20
2022-10-18T04:05:34.729Z,6.22
2022-10-18T04:08:04.776Z,6.40
2022-10-18T04:10:34.463Z,6.70
2022-10-18T04:13:04.086Z,6.32
2022-10-18T04:15:33.799Z,5.60
2022-10-18T04:18:06.430Z,6.53
2022-10-18T04:20:36.060Z,5.38
2022-10-18T04:23:05.698Z,5.93
2022-10-18T04:25:38.500Z,6.20
2022-10-18T04:28:08.349Z,7.72
2022-10-18T04:30:38.131Z,6.63
2022-10-18T04:33:10.341Z,7.95
2022-10-18T04:35:40.006Z,7.60
2022-10-18T04:38:09.544Z,6.50
2022-10-18T04:40:40.178Z,6.32
2022-10-18T04:43:09.781Z,6.10
2022-10-18T04:45:39.708Z,5.38
2022-10-18T04:48:12.333Z,5.65
2022-10-18T04:50:42.019Z,5.57
2022-10-18T04:53:11.910Z,5.55
2022-10-18T04:55:41.620Z,5.28
2022-10-18T04:58:11.339Z,5.13
2022-10-18T05:00:42.091Z,5.82
2022-10-18T05:03:16.096Z,5.03
2022-10-18T05:06:03.446Z,4.78
2022-10-18T05:08:34.057Z,7.25
2022-10-18T05:11:04.854Z,7.35
2022-10-18T05:13:34.549Z,7.07
2022-10-18T05:16:04.284Z,6.60
2022-10-18T05:18:36.670Z,7.63
2022-10-18T05:21:13.505Z,5.60
2022-10-18T05:23:43.575Z,8.38
2022-10-18T05:26:13.326Z,7.75
2022-10-18T05:28:43.053Z,6.55
2022-10-18T05:31:14.257Z,6.07
2022-10-18T05:33:46.534Z,5.20
2022-10-18T05:36:16.177Z,5.68
2022-10-18T05:38:48.491Z,6.55
2022-10-18T05:41:18.612Z,5.70
2022-10-18T05:43:48.835Z,5.13
2022-10-18T05:46:19.060Z,6.00
2022-10-18T05:48:53.953Z,5.65
2022-10-18T05:51:23.838Z,5.28
2022-10-18T05:53:54.946Z,5.35
2022-10-18T05:56:24.806Z,4.75
2022-10-18T05:58:54.885Z,5.10
2022-10-18T06:01:24.697Z,5.97
2022-10-18T06:03:57.125Z,4.72
2022-10-18T06:06:26.716Z,4.97
2022-10-18T06:08:56.396Z,4.68
2022-10-18T06:11:26.478Z,4.47
2022-10-18T06:13:57.872Z,4.55
2022-10-18T06:16:32.205Z,4.45
2022-10-18T06:19:04.931Z,4.60
2022-10-18T06:21:35.026Z,5.20
2022-10-18T06:24:04.651Z,5.28
2022-10-18T06:26:34.296Z,13.30
2022-10-18T06:29:03.903Z,9.82
2022-10-18T06:31:33.863Z,8.40
2022-10-18T06:34:06.240Z,6.55
2022-10-18T06:36:35.928Z,6.07
2022-10-18T06:39:05.621Z,5.25
2022-10-18T06:41:35.288Z,5.35
2022-10-18T06:44:13.644Z,6.18
2022-10-18T06:46:43.559Z,5.30
2022-10-18T06:49:19.480Z,5.60
2022-10-18T06:51:49.316Z,4.88
2022-10-18T06:54:19.476Z,5.53
2022-10-18T06:56:49.474Z,5.45
2022-10-18T06:59:19.290Z,5.53
2022-10-18T07:01:48.888Z,5.72
2022-10-18T07:04:21.075Z,5.75
2022-10-18T07:06:50.718Z,5.22
2022-10-18T07:09:20.342Z,5.22
2022-10-18T07:11:49.913Z,5.15
2022-10-18T07:14:19.497Z,5.55
2022-10-18T07:16:49.012Z,6.03
2022-10-18T07:19:21.289Z,6.05
2022-10-18T07:21:50.942Z,5.82
2022-10-18T07:24:20.537Z,6.38
2022-10-18T07:26:50.247Z,7.07
2022-10-18T07:29:20.073Z,6.75
2022-10-18T07:31:49.737Z,6.72
2022-10-18T07:34:21.954Z,6.50
2022-10-18T07:36:51.565Z,6.20
2022-10-18T07:39:21.113Z,7.53
2022-10-18T07:41:50.934Z,8.00
2022-10-18T07:44:20.502Z,8.02
2022-10-18T07:46:50.240Z,8.23
2022-10-18T07:49:22.481Z,7.57
2022-10-18T07:51:52.319Z,6.93
2022-10-18T07:54:22.438Z,7.35
2022-10-18T07:56:52.150Z,6.40
2022-10-18T07:59:21.786Z,7.10
2022-10-18T08:01:51.368Z,7.22
2022-10-18T08:04:23.765Z,7.82
2022-10-18T08:06:53.427Z,7.45
2022-10-18T08:09:23.251Z,8.38
2022-10-18T08:11:52.785Z,8.18
2022-10-18T08:14:22.487Z,7.85
2022-10-18T08:16:52.071Z,8.25
2022-10-18T08:19:25.205Z,8.85
2022-10-18T08:21:54.834Z,8.65
2022-10-18T08:24:25.341Z,8.85
2022-10-18T08:26:55.114Z,10.05
2022-10-18T08:29:28.104Z,11.38
2022-10-18T08:32:00.649Z,10.88
2022-10-18T08:34:33.619Z,11.95
2022-10-18T08:37:06.354Z,11.85
2022-10-18T08:39:36.042Z,11.73
2022-10-18T08:42:34.504Z,11.25
2022-10-18T08:45:12.986Z,8.45
2022-10-18T08:47:57.290Z,8.30
2022-10-18T08:50:36.683Z,9.73
2022-10-18T08:53:16.135Z,10.23
2022-10-18T08:55:48.802Z,9.52
2022-10-18T08:58:22.209Z,9.00
2022-10-18T09:01:06.022Z,6.75
2022-10-18T09:03:57.810Z,6.38
2022-10-18T09:06:38.039Z,5.70
2022-10-18T09:09:23.235Z,5.45
2022-10-18T09:12:05.416Z,5.30
2022-10-18T09:15:01.342Z,4.03
2022-10-18T09:17:39.442Z,3.90
2022-10-18T09:20:26.251Z,3.53
2022-10-18T09:23:01.801Z,2.83
2022-10-18T09:25:39.005Z,3.30
2022-10-18T09:28:29.145Z,2.70
2022-10-18T09:31:07.820Z,2.08
2022-10-18T09:33:56.271Z,2.45
2022-10-18T09:36:32.480Z,2.63
2022-10-18T09:39:08.015Z,2.50
2022-10-18T09:41:47.396Z,2.20
2022-10-18T09:44:23.812Z,2.22
2022-10-18T09:46:59.625Z,2.20
2022-10-18T09:49:33.747Z,3.47
2022-10-18T09:52:10.478Z,2.28
2022-10-18T09:54:47.800Z,2.42
2022-10-18T09:57:24.911Z,1.92
2022-10-18T09:59:54.599Z,2.38
2022-10-18T10:02:26.032Z,2.65
2022-10-18T10:04:57.174Z,2.20
2022-10-18T10:07:32.562Z,2.55
2022-10-18T10:10:15.400Z,2.95
2022-10-18T10:12:46.022Z,1.95
2022-10-18T10:15:22.802Z,2.00
2022-10-18T10:18:04.241Z,2.00
2022-10-18T10:20:38.493Z,2.03
2022-10-18T10:23:10.325Z,1.92
2022-10-18T10:25:45.168Z,2.15
2022-10-18T10:28:18.838Z,2.13
2022-10-18T10:30:48.750Z,2.97
2022-10-18T10:33:35.436Z,2.65
2022-10-18T10:36:07.246Z,2.03
2022-10-18T10:38:36.866Z,2.40
2022-10-18T10:41:22.766Z,1.90
2022-10-18T10:43:53.685Z,2.22
2022-10-18T10:46:23.809Z,1.70
2022-10-18T10:49:15.403Z,2.15
2022-10-18T10:51:53.670Z,2.00
2022-10-18T10:54:36.886Z,1.67
2022-10-18T10:57:22.657Z,1.65
2022-10-18T10:59:54.765Z,2.00
2022-10-18T11:02:29.707Z,1.70
2022-10-18T11:05:18.028Z,1.85
2022-10-18T11:07:49.683Z,2.10
2022-10-18T11:10:25.849Z,2.20
2022-10-18T11:13:06.107Z,1.95
2022-10-18T11:15:40.992Z,2.17
2022-10-18T11:18:20.015Z,1.63
2022-10-18T11:20:55.848Z,1.80
2022-10-18T11:23:32.293Z,1.90
2022-10-18T11:26:16.521Z,1.85
2022-10-18T11:29:20.753Z,1.52
2022-10-18T11:31:59.280Z,1.70
2022-10-18T11:34:45.703Z,1.83
2022-10-18T11:37:33.410Z,2.00
2022-10-18T11:40:19.911Z,2.05
2022-10-18T11:42:54.735Z,1.70
2022-10-18T11:45:40.375Z,1.58
2022-10-18T11:48:31.169Z,1.40
2022-10-18T11:51:08.838Z,1.85
2022-10-18T11:53:51.725Z,1.60
2022-10-18T11:56:33.205Z,2.33
2022-10-18T11:59:25.207Z,1.98
2022-10-18T12:02:06.658Z,1.73
2022-10-18T12:04:49.011Z,1.25
2022-10-18T12:07:33.714Z,1.45
2022-10-18T12:10:05.906Z,1.58
2022-10-18T12:15:22.009Z,1.40
2022-10-18T12:17:57.131Z,2.08
2022-10-18T12:20:34.511Z,1.60
2022-10-18T12:23:06.395Z,1.58
2022-10-18T12:25:40.006Z,1.80
2022-10-18T12:28:19.886Z,1.90
2022-10-18T12:30:56.738Z,1.58
2022-10-18T12:33:33.510Z,1.70
2022-10-18T12:36:16.933Z,1.83
2022-10-18T12:38:51.838Z,1.60
2022-10-18T12:41:25.057Z,1.63
2022-10-18T12:43:55.924Z,1.60
2022-10-18T12:46:26.037Z,1.33
2022-10-18T12:49:08.732Z,1.40
2022-10-18T12:51:38.313Z,1.50
2022-10-18T12:54:15.658Z,1.70
2022-10-18T12:56:47.696Z,1.73
2022-10-18T12:59:53.945Z,1.38
2022-10-18T13:02:31.868Z,1.45
2022-10-18T13:05:49.008Z,1.40
2022-10-18T13:08:42.116Z,1.40
2022-10-18T13:14:44.186Z,1.45
2022-10-18T13:17:33.444Z,1.55
2022-10-18T13:20:27.106Z,1.90
2022-10-18T13:23:10.782Z,1.45
2022-10-18T13:25:54.374Z,2.15
2022-10-18T13:28:34.130Z,1.70
2022-10-18T13:31:12.455Z,1.48
2022-10-18T13:33:44.896Z,1.52
2022-10-18T13:36:29.667Z,1.35
2022-10-18T13:39:06.115Z,1.00
2022-10-18T13:42:10.762Z,1.55
2022-10-18T13:44:41.913Z,1.63
2022-10-18T13:47:16.640Z,1.60
2022-10-18T13:50:08.154Z,1.42
2022-10-18T13:56:01.026Z,1.60
2022-10-18T13:58:49.047Z,1.67
2022-10-18T14:01:42.475Z,1.45
2022-10-18T14:04:42.613Z,1.65
2022-10-18T14:07:14.736Z,1.60
2022-10-18T14:09:56.145Z,1.65
2022-10-18T14:12:33.975Z,1.70
2022-10-18T14:15:12.974Z,1.60
2022-10-18T14:17:47.394Z,1.48
2022-10-18T14:20:29.329Z,1.70
2022-10-18T14:23:05.749Z,1.58
2022-10-18T14:25:40.790Z,1.60
2022-10-18T14:28:15.717Z,3.75
2022-10-18T14:30:56.503Z,1.60
2022-10-18T14:33:32.649Z,2.13
2022-10-18T14:36:11.576Z,1.23
2022-10-18T14:38:56.042Z,1.30
2022-10-18T14:41:29.646Z,1.55
2022-10-18T14:44:21.267Z,2.38
2022-10-18T14:46:52.577Z,1.48
2022-10-18T14:49:25.201Z,1.70
2022-10-18T14:51:56.479Z,1.80
2022-10-18T14:54:31.797Z,1.20
2022-10-18T14:57:06.101Z,1.42
2022-10-18T14:59:43.008Z,1.70
2022-10-18T15:02:17.777Z,1.95
2022-10-18T15:04:48.547Z,1.70
2022-10-18T15:07:20.886Z,1.52
2022-10-18T15:09:51.290Z,2.05
2022-10-18T15:12:23.728Z,1.85
2022-10-18T15:14:54.795Z,1.63
2022-10-18T15:17:28.815Z,1.85
2022-10-18T15:20:05.152Z,1.63
2022-10-18T15:22:36.830Z,1.98
2022-10-18T15:25:17.389Z,1.83
2022-10-18T15:27:53.113Z,1.92
2022-10-18T15:30:27.985Z,1.60
2022-10-18T15:33:03.854Z,1.85
2022-10-18T15:35:35.859Z,1.80
2022-10-18T15:38:17.764Z,1.90
2022-10-18T15:40:47.743Z,1.35
2022-10-18T15:43:41.021Z,2.00
2022-10-18T15:46:34.010Z,1.90
2022-10-18T15:49:48.433Z,2.20
2022-10-18T15:52:42.578Z,1.88
2022-10-18T15:57:57.689Z,2.03
2022-10-18T16:00:30.770Z,1.90
2022-10-18T16:03:00.635Z,2.90
2022-10-18T16:05:30.845Z,2.63
2022-10-18T16:08:01.084Z,1.60
2022-10-18T16:10:31.336Z,2.00
2022-10-18T16:13:01.268Z,1.90
2022-10-18T16:15:33.602Z,1.67
2022-10-18T16:18:05.986Z,1.80
2022-10-18T16:20:35.885Z,3.80
2022-10-18T16:23:05.516Z,2.08
2022-10-18T16:25:35.864Z,2.30
2022-10-18T16:28:05.497Z,2.05
2022-10-18T16:30:39.046Z,1.98
2022-10-18T16:35:38.424Z,2.22
2022-10-18T16:38:08.475Z,1.80
2022-10-18T16:40:41.160Z,2.25
2022-10-18T16:43:14.398Z,1.77
2022-10-18T16:45:49.830Z,1.93
2022-10-18T16:48:22.495Z,2.40
2022-10-18T16:50:53.152Z,2.35
2022-10-18T16:53:23.872Z,2.50
2022-10-18T16:55:56.943Z,3.30
2022-10-18T16:58:28.456Z,2.58
2022-10-18T17:01:04.048Z,2.75
2022-10-18T17:03:36.612Z,2.20
2022-10-18T17:06:06.434Z,2.33
2022-10-18T17:08:36.242Z,2.50
2022-10-18T17:11:06.098Z,3.35
2022-10-18T17:13:35.864Z,2.40
2022-10-18T17:16:09.917Z,2.58
2022-10-18T17:18:39.597Z,2.78
2022-10-18T17:21:09.243Z,3.10
2022-10-18T17:23:39.129Z,2.63
2022-10-18T17:26:27.732Z,3.45
2022-10-18T17:29:01.096Z,3.80
2022-10-18T17:31:35.862Z,4.75
2022-10-18T17:34:05.713Z,3.83
2022-10-18T17:36:36.344Z,5.78
2022-10-18T17:39:06.597Z,5.57
2022-10-18T17:41:36.398Z,4.43
2022-10-18T17:44:06.594Z,5.18
2022-10-18T17:46:40.204Z,5.82
2022-10-18T17:49:10.014Z,4.82
2022-10-18T17:51:41.377Z,4.88
2022-10-18T17:54:11.389Z,5.22
2022-10-18T17:56:42.654Z,5.07
2022-10-18T17:59:12.257Z,5.53
2022-10-18T18:01:44.773Z,5.63
2022-10-18T18:04:15.174Z,6.07
2022-10-18T18:06:45.563Z,5.50
2022-10-18T18:09:17.712Z,5.22
2022-10-18T18:11:49.549Z,6.13
2022-10-18T18:14:19.553Z,4.95
2022-10-18T18:16:52.674Z,5.38
2022-10-18T18:19:24.160Z,4.70
2022-10-18T18:21:58.942Z,4.93
2022-10-18T18:24:30.682Z,4.95
2022-10-18T18:27:00.893Z,4.80
2022-10-18T18:29:30.852Z,4.88
2022-10-18T18:32:03.829Z,6.80
2022-10-18T18:34:34.242Z,6.53
2022-10-18T18:37:03.973Z,6.90
2022-10-18T18:39:36.005Z,7.40
2022-10-18T18:42:06.790Z,8.45
2022-10-18T18:44:37.279Z,7.80
2022-10-18T18:47:13.165Z,6.50
2022-10-18T18:49:45.225Z,7.05
2022-10-18T18:52:14.846Z,8.30
2022-10-18T18:54:46.551Z,7.53
2022-10-18T18:57:16.687Z,7.82
2022-10-18T18:59:46.432Z,7.72
2022-10-18T19:02:18.701Z,8.00
2022-10-18T19:04:48.360Z,7.03
2022-10-18T19:07:18.066Z,6.65
2022-10-18T19:09:50.610Z,5.65
2022-10-18T19:12:21.426Z,4.90
2022-10-18T19:14:51.189Z,4.65
2022-10-18T19:17:23.787Z,4.97
2022-10-18T19:19:54.205Z,4.60
2022-10-18T19:22:23.825Z,3.97
2022-10-18T19:24:54.052Z,4.63
2022-10-18T19:27:23.640Z,5.18
2022-10-18T19:29:53.385Z,6.53
2022-10-18T19:32:25.764Z,6.32
2022-10-18T19:34:55.560Z,9.40
2022-10-18T19:37:25.418Z,11.43
2022-10-18T19:39:55.218Z,9.27
2022-10-18T19:42:30.323Z,8.32
2022-10-18T19:45:01.164Z,5.93
2022-10-18T19:47:33.448Z,6.35
2022-10-18T19:50:03.524Z,11.88
2022-10-18T19:52:33.842Z,10.15
2022-10-18T19:55:03.792Z,8.50
2022-10-18T19:57:33.581Z,7.55
2022-10-18T20:00:05.451Z,6.60
2022-10-18T20:02:40.638Z,7.15
2022-10-18T20:05:11.070Z,7.65
2022-10-18T20:07:41.355Z,8.52
2022-10-18T20:10:11.554Z,8.82
2022-10-18T20:12:41.177Z,8.02
2022-10-18T20:15:12.204Z,6.45
2022-10-18T20:17:44.852Z,5.07
2022-10-18T20:20:15.255Z,6.63
2022-10-18T20:22:44.925Z,7.25
2022-10-18T20:25:14.670Z,6.05
2022-10-18T20:27:44.724Z,7.72
2022-10-18T20:30:14.705Z,6.80
2022-10-18T20:32:47.582Z,6.65
2022-10-18T20:35:17.577Z,5.87
2022-10-18T20:37:47.605Z,6.72
2022-10-18T20:40:18.193Z,6.15
2022-10-18T20:42:47.995Z,6.47
2022-10-18T20:45:17.803Z,6.60
2022-10-18T20:47:50.231Z,5.90
2022-10-18T20:50:19.974Z,6.25
2022-10-18T20:52:51.413Z,5.38
2022-10-18T20:55:21.327Z,5.30
2022-10-18T20:57:50.897Z,4.72
2022-10-18T21:00:20.651Z,5.93
2022-10-18T21:02:53.077Z,6.38
2022-10-18T21:05:24.480Z,5.97
2022-10-18T21:07:54.059Z,5.30
2022-10-18T21:10:26.870Z,5.80
2022-10-18T21:12:56.526Z,4.65
2022-10-18T21:15:26.109Z,4.78
2022-10-18T21:17:58.250Z,5.38
2022-10-18T21:20:27.959Z,5.10
2022-10-18T21:22:57.564Z,5.18
2022-10-18T21:25:27.161Z,5.32
2022-10-18T21:27:57.017Z,5.75
2022-10-18T21:30:26.602Z,5.80
2022-10-18T21:32:58.862Z,5.75
2022-10-18T21:35:28.465Z,5.70
2022-10-18T21:37:57.995Z,5.47
2022-10-18T21:40:27.687Z,5.35
2022-10-18T21:42:57.357Z,4.72
2022-10-18T21:45:27.145Z,6.72
2022-10-18T21:47:59.500Z,6.05
2022-10-18T21:50:29.127Z,6.50
2022-10-18T21:52:58.810Z,6.50
2022-10-18T21:55:28.425Z,7.13
2022-10-18T21:57:57.952Z,6.18
2022-10-18T22:00:27.495Z,6.93
2022-10-18T22:03:11.702Z,6.10
2022-10-18T22:05:42.554Z,5.95
2022-10-18T22:08:12.654Z,6.50
2022-10-18T22:10:45.100Z,5.72
2022-10-18T22:13:14.716Z,6.55
2022-10-18T22:15:44.833Z,7.00
2022-10-18T22:18:18.292Z,7.47
2022-10-18T22:20:56.551Z,5.85
2022-10-18T22:23:26.292Z,6.40
2022-10-18T22:25:56.107Z,7.28
2022-10-18T22:28:25.781Z,6.28
2022-10-18T22:30:55.385Z,6.20
2022-10-18T22:33:27.795Z,6.57
2022-10-18T22:35:57.422Z,7.30
2022-10-18T22:38:27.244Z,7.10
2022-10-18T22:40:56.895Z,6.13
2022-10-18T22:43:26.654Z,6.95
2022-10-18T22:45:56.296Z,5.88
2022-10-18T22:48:28.593Z,5.68
2022-10-18T22:50:58.546Z,5.53
2022-10-18T22:53:28.850Z,5.35
2022-10-18T22:55:58.508Z,6.78
2022-10-18T22:58:28.696Z,6.55
2022-10-18T23:01:03.495Z,6.13
2022-10-18T23:03:36.383Z,6.65
2022-10-18T23:06:06.782Z,6.83
2022-10-18T23:08:36.620Z,6.90
2022-10-18T23:11:06.269Z,6.78
2022-10-18T23:13:38.781Z,6.47
2022-10-18T23:16:09.828Z,6.30
2022-10-18T23:18:42.221Z,6.57
2022-10-18T23:21:16.859Z,6.57
2022-10-18T23:23:47.195Z,6.72
2022-10-18T23:26:18.757Z,6.15
2022-10-18T23:28:50.630Z,6.78
2022-10-18T23:31:23.757Z,6.80
2022-10-18T23:33:57.698Z,6.95
2022-10-18T23:36:28.347Z,6.13
2022-10-18T23:38:58.406Z,6.78
2022-10-18T23:41:28.901Z,6.55
2022-10-18T23:43:58.635Z,6.57
2022-10-18T23:46:28.192Z,6.60
2022-10-18T23:49:00.377Z,7.22
2022-10-18T23:51:30.345Z,6.95
2022-10-18T23:54:00.098Z,6.00
2022-10-18T23:56:29.706Z,5.78
2022-10-18T23:58:59.325Z,5.80
